createdAt,value
2018-04-11T00:00:36.147Z,10.80
2018-04-11T00:03:04.576Z,10.80
2018-04-11T00:05:33.925Z,10.90
2018-04-11T00:08:02.713Z,10.90
2018-04-11T00:10:31.200Z,10.80
2018-04-11T00:12:59.635Z,11.00
2018-04-11T00:15:28.232Z,11.00
2018-04-11T00:17:56.943Z,10.90
2018-04-11T00:20:25.393Z,10.90
2018-04-11T00:22:54.845Z,10.80
2018-04-11T00:25:23.576Z,10.80
2018-04-11T00:27:52.302Z,10.80
2018-04-11T00:30:20.905Z,10.80
2018-04-11T00:32:49.409Z,10.80
2018-04-11T00:35:17.850Z,10.80
2018-04-11T00:37:46.293Z,10.80
2018-04-11T00:40:15.500Z,10.70
2018-04-11T00:42:43.928Z,10.70
2018-04-11T00:45:12.368Z,10.70
2018-04-11T00:47:41.056Z,10.80
2018-04-11T00:50:10.537Z,10.80
2018-04-11T00:52:38.997Z,10.70
2018-04-11T00:55:08.200Z,10.70
2018-04-11T00:57:36.921Z,10.70
2018-04-11T01:00:06.385Z,10.70
2018-04-11T01:02:35.057Z,10.60
2018-04-11T01:05:03.237Z,10.60
2018-04-11T01:07:32.258Z,10.60
2018-04-11T01:10:00.867Z,10.60
2018-04-11T01:12:30.418Z,10.50
2018-04-11T01:15:00.044Z,10.60
2018-04-11T01:17:28.537Z,10.50
2018-04-11T01:19:57.197Z,10.50
2018-04-11T01:22:25.848Z,10.50
2018-04-11T01:24:54.281Z,10.40
2018-04-11T01:27:22.775Z,10.40
2018-04-11T01:29:51.204Z,10.40
2018-04-11T01:32:19.917Z,10.40
2018-04-11T01:34:49.109Z,10.30
2018-04-11T01:37:17.925Z,10.30
2018-04-11T01:39:47.406Z,10.40
2018-04-11T01:42:16.115Z,10.30
2018-04-11T01:44:44.819Z,10.40
2018-04-11T01:47:13.263Z,10.40
2018-04-11T01:49:41.696Z,10.30
2018-04-11T01:52:10.134Z,10.20
2018-04-11T01:54:38.846Z,10.20
2018-04-11T01:57:07.375Z,10.30
2018-04-11T01:59:36.103Z,10.30
2018-04-11T02:02:04.213Z,10.30
2018-04-11T02:04:32.712Z,10.20
2018-04-11T02:07:01.925Z,10.20
2018-04-11T02:09:30.484Z,10.20
2018-04-11T02:11:58.969Z,10.30
2018-04-11T02:14:27.200Z,10.20
2018-04-11T02:16:55.906Z,10.20
2018-04-11T02:19:24.436Z,10.20
2018-04-11T02:21:52.882Z,10.20
2018-04-11T02:24:21.585Z,10.10
2018-04-11T02:26:50.293Z,10.20
2018-04-11T02:29:18.500Z,10.10
2018-04-11T02:31:47.213Z,10.10
2018-04-11T02:34:15.664Z,10.10
2018-04-11T02:36:44.395Z,10.10
2018-04-11T02:39:13.100Z,10.10
2018-04-11T02:41:42.611Z,10.10
2018-04-11T02:44:11.063Z,10.00
2018-04-11T02:46:39.779Z,10.10
2018-04-11T02:49:09.166Z,10.00
2018-04-11T02:51:38.645Z,10.00
2018-04-11T02:54:07.361Z,10.00
2018-04-11T02:56:35.790Z,10.00
2018-04-11T02:59:03.897Z,10.00
2018-04-11T03:01:32.336Z,10.00
2018-04-11T03:04:00.997Z,10.00
2018-04-11T03:06:29.760Z,10.10
2018-04-11T03:08:58.206Z,10.00
2018-04-11T03:11:26.921Z,10.00
2018-04-11T03:13:55.361Z,10.00
2018-04-11T03:16:23.912Z,9.90
2018-04-11T03:18:52.782Z,9.90
2018-04-11T03:21:21.218Z,9.80
2018-04-11T03:23:49.772Z,9.80
2018-04-11T03:26:18.222Z,9.60
2018-04-11T03:28:46.899Z,9.60
2018-04-11T03:31:16.159Z,9.40
2018-04-11T03:33:44.888Z,9.40
2018-04-11T03:36:14.393Z,9.40
2018-04-11T03:38:42.828Z,9.40
2018-04-11T03:41:12.045Z,9.30
2018-04-11T03:43:40.593Z,9.30
2018-04-11T03:46:09.804Z,9.20
2018-04-11T03:48:38.528Z,9.10
2018-04-11T03:51:07.178Z,9.10
2018-04-11T03:53:36.668Z,9.00
2018-04-11T03:56:05.403Z,9.00
2018-04-11T03:58:34.880Z,8.90
2018-04-11T04:01:04.094Z,8.90
2018-04-11T04:03:32.524Z,8.90
2018-04-11T04:06:01.069Z,8.90
2018-04-11T04:08:30.544Z,8.80
2018-04-11T04:10:59.741Z,8.70
2018-04-11T04:13:39.914Z,8.70
2018-04-11T04:16:19.704Z,8.60
2018-04-11T04:18:59.561Z,8.60
2018-04-11T04:21:28.168Z,8.60
2018-04-11T04:23:56.718Z,8.60
2018-04-11T04:26:25.168Z,8.50
2018-04-11T04:28:53.612Z,8.40
2018-04-11T04:31:21.718Z,8.30
2018-04-11T04:33:50.149Z,8.30
2018-04-11T04:36:18.777Z,8.20
2018-04-11T04:38:47.210Z,8.10
2018-04-11T04:41:15.890Z,8.10
2018-04-11T04:43:45.096Z,8.00
2018-04-11T04:46:14.302Z,8.10
2018-04-11T04:48:43.580Z,8.10
2018-04-11T04:51:12.631Z,8.10
2018-04-11T04:53:41.180Z,8.10
2018-04-11T04:56:09.616Z,8.20
2018-04-11T04:58:38.123Z,8.20
2018-04-11T05:01:07.104Z,8.40
2018-04-11T05:03:35.780Z,8.40
2018-04-11T05:06:04.217Z,8.40
2018-04-11T05:08:32.649Z,8.40
2018-04-11T05:11:01.161Z,8.40
2018-04-11T05:13:29.605Z,8.50
2018-04-11T05:15:57.806Z,8.50
2018-04-11T05:18:26.245Z,8.60
2018-04-11T05:20:54.677Z,8.60
2018-04-11T05:23:24.189Z,8.70
2018-04-11T05:25:52.770Z,8.70
2018-04-11T05:28:20.984Z,8.70
2018-04-11T05:30:49.568Z,8.80
2018-04-11T05:33:18.286Z,8.80
2018-04-11T05:35:46.958Z,8.90
2018-04-11T05:38:16.494Z,8.90
2018-04-11T05:40:45.747Z,9.00
2018-04-11T05:43:13.951Z,8.90
2018-04-11T05:45:42.170Z,9.00
2018-04-11T05:48:10.626Z,9.00
2018-04-11T05:50:39.296Z,9.10
2018-04-11T05:53:07.810Z,9.20
2018-04-11T05:55:37.393Z,9.40
2018-04-11T05:58:05.821Z,9.40
2018-04-11T06:00:34.275Z,9.50
2018-04-11T06:03:02.701Z,9.60
2018-04-11T06:05:31.528Z,9.70
2018-04-11T06:08:00.216Z,9.80
2018-04-11T06:10:28.664Z,9.90
2018-04-11T06:12:57.365Z,10.00
2018-04-11T06:15:26.849Z,10.10
2018-04-11T06:17:55.568Z,10.10
2018-04-11T06:20:24.949Z,10.40
2018-04-11T06:22:53.397Z,10.30
2018-04-11T06:25:22.041Z,10.60
2018-04-11T06:27:50.798Z,10.70
2018-04-11T06:30:19.240Z,11.00
2018-04-11T06:32:47.945Z,11.00
2018-04-11T06:35:16.675Z,11.30
2018-04-11T06:37:45.352Z,11.40
2018-04-11T06:40:14.830Z,12.10
2018-04-11T06:42:44.152Z,12.40
2018-04-11T06:45:12.880Z,12.40
2018-04-11T06:47:42.153Z,12.70
2018-04-11T06:50:10.601Z,12.70
2018-04-11T06:52:39.041Z,12.80
2018-04-11T06:55:07.467Z,13.00
2018-04-11T06:57:35.801Z,13.30
2018-04-11T07:00:03.559Z,13.70
2018-04-11T07:02:33.093Z,14.00
2018-04-11T07:05:02.281Z,14.30
2018-04-11T07:07:31.508Z,14.40
2018-04-11T07:10:00.363Z,14.40
2018-04-11T07:12:29.290Z,14.40
2018-04-11T07:14:57.729Z,14.60
2018-04-11T07:17:26.943Z,14.50
2018-04-11T07:19:55.414Z,14.50
2018-04-11T07:22:24.004Z,14.60
2018-04-11T07:24:52.964Z,14.90
2018-04-11T07:27:21.408Z,14.90
2018-04-11T07:29:49.842Z,14.90
2018-04-11T07:32:18.556Z,15.30
2018-04-11T07:34:48.344Z,15.60
2018-04-11T07:37:17.048Z,15.60
2018-04-11T07:39:45.792Z,15.50
2018-04-11T07:42:14.228Z,15.60
2018-04-11T07:44:44.115Z,16.30
2018-04-11T07:47:12.899Z,16.30
2018-04-11T07:49:42.108Z,16.70
2018-04-11T07:52:10.572Z,16.70
2018-04-11T07:54:39.302Z,16.70
2018-04-11T07:57:08.009Z,16.90
2018-04-11T07:59:37.360Z,17.40
2018-04-11T08:02:05.838Z,17.40
2018-04-11T08:04:34.050Z,17.90
2018-04-11T08:07:02.575Z,18.10
2018-04-11T08:09:31.285Z,17.80
2018-04-11T08:12:00.905Z,18.10
2018-04-11T08:14:29.150Z,18.20
2018-04-11T08:16:58.381Z,18.30
2018-04-11T08:19:27.641Z,18.70
2018-04-11T08:21:56.597Z,19.10
2018-04-11T08:24:25.041Z,19.10
2018-04-11T08:26:53.509Z,19.20
2018-04-11T08:29:22.013Z,19.00
2018-04-11T08:31:50.217Z,19.50
2018-04-11T08:34:18.733Z,19.50
2018-04-11T08:36:47.290Z,19.80
2018-04-11T08:39:16.019Z,20.10
2018-04-11T08:41:44.610Z,19.90
2018-04-11T08:44:14.069Z,19.80
2018-04-11T08:46:42.677Z,19.80
2018-04-11T08:49:11.121Z,20.10
2018-04-11T08:51:39.829Z,20.50
2018-04-11T08:54:08.524Z,19.70
2018-04-11T08:56:37.224Z,20.40
2018-04-11T08:59:05.709Z,20.50
2018-04-11T09:01:34.140Z,20.50
2018-04-11T09:04:02.578Z,20.40
2018-04-11T09:06:32.048Z,21.20
2018-04-11T09:09:01.245Z,21.80
2018-04-11T09:11:30.453Z,22.40
2018-04-11T09:13:59.144Z,22.30
2018-04-11T09:16:27.572Z,22.30
2018-04-11T09:18:56.264Z,22.90
2018-04-11T09:21:24.702Z,22.60
2018-04-11T09:23:54.170Z,22.40
2018-04-11T09:26:24.108Z,22.40
2018-04-11T09:28:52.533Z,21.30
2018-04-11T09:31:20.968Z,21.10
2018-04-11T09:33:49.416Z,21.50
2018-04-11T09:36:18.234Z,21.90
2018-04-11T09:38:46.742Z,22.30
2018-04-11T09:41:15.588Z,22.50
2018-04-11T09:43:44.880Z,21.50
2018-04-11T09:46:13.792Z,21.50
2018-04-11T09:48:42.234Z,22.10
2018-04-11T09:51:10.958Z,23.10
2018-04-11T09:53:39.396Z,23.40
2018-04-11T09:56:08.094Z,23.40
2018-04-11T09:58:36.911Z,22.40
2018-04-11T10:01:05.439Z,21.40
2018-04-11T10:03:34.732Z,20.60
2018-04-11T10:06:03.481Z,20.60
2018-04-11T10:08:32.042Z,19.80
2018-04-11T10:11:00.484Z,19.50
2018-04-11T10:13:28.930Z,20.50
2018-04-11T10:15:57.428Z,20.90
2018-04-11T10:18:25.640Z,20.80
2018-04-11T10:20:54.332Z,21.40
2018-04-11T10:23:23.295Z,22.90
2018-04-11T10:25:51.742Z,22.80
2018-04-11T10:28:21.002Z,24.30
2018-04-11T10:30:50.513Z,24.20
2018-04-11T10:33:19.084Z,24.10
2018-04-11T10:35:48.273Z,23.80
2018-04-11T10:38:16.965Z,23.80
2018-04-11T10:40:45.675Z,24.20
2018-04-11T10:43:14.369Z,23.80
2018-04-11T10:45:43.873Z,21.70
2018-04-11T10:48:12.757Z,21.70
2018-04-11T10:50:41.197Z,22.70
2018-04-11T10:53:10.389Z,25.20
2018-04-11T10:55:38.823Z,25.20
2018-04-11T10:58:08.285Z,25.30
2018-04-11T11:00:37.000Z,25.30
2018-04-11T11:03:05.406Z,24.60
2018-04-11T11:05:34.105Z,24.30
2018-04-11T11:08:04.010Z,22.90
2018-04-11T11:10:33.217Z,24.20
2018-04-11T11:13:01.417Z,24.20
2018-04-11T11:15:30.619Z,26.10
2018-04-11T11:17:59.820Z,27.50
2018-04-11T11:20:28.296Z,27.40
2018-04-11T11:22:57.484Z,27.60
2018-04-11T11:25:26.557Z,28.20
2018-04-11T11:27:54.981Z,28.20
2018-04-11T11:30:23.458Z,28.00
2018-04-11T11:32:52.205Z,29.00
2018-04-11T11:35:20.490Z,28.70
2018-04-11T11:37:49.245Z,28.10
2018-04-11T11:40:17.953Z,28.00
2018-04-11T11:42:46.118Z,28.50
2018-04-11T11:45:15.353Z,27.70
2018-04-11T11:47:44.556Z,26.90
2018-04-11T11:50:12.984Z,26.90
2018-04-11T11:52:41.868Z,27.50
2018-04-11T11:55:09.985Z,27.40
2018-04-11T11:57:38.696Z,27.70
2018-04-11T12:00:07.152Z,28.40
2018-04-11T12:02:35.863Z,27.70
2018-04-11T12:05:05.321Z,24.40
2018-04-11T12:07:33.848Z,24.40
2018-04-11T12:10:02.558Z,22.40
2018-04-11T12:12:32.028Z,23.20
2018-04-11T12:15:00.459Z,23.20
2018-04-11T12:17:28.898Z,24.40
2018-04-11T12:19:58.360Z,26.10
2018-04-11T12:22:27.670Z,27.20
2018-04-11T12:24:56.910Z,27.30
2018-04-11T12:27:25.347Z,27.30
2018-04-11T12:29:54.552Z,27.20
2018-04-11T12:32:22.988Z,27.20
2018-04-11T12:34:51.702Z,27.20
2018-04-11T12:37:20.955Z,27.60
2018-04-11T12:39:49.816Z,27.50
2018-04-11T12:42:19.222Z,24.40
2018-04-11T12:44:48.626Z,24.70
2018-04-11T12:47:18.108Z,25.40
2018-04-11T12:49:47.328Z,26.10
2018-04-11T12:52:16.025Z,26.10
2018-04-11T12:54:44.217Z,26.80
2018-04-11T12:57:12.430Z,26.90
2018-04-11T12:59:41.638Z,27.00
2018-04-11T13:02:09.738Z,26.90
2018-04-11T13:04:38.388Z,27.30
2018-04-11T13:07:07.868Z,27.50
2018-04-11T13:09:37.812Z,27.20
2018-04-11T13:12:06.026Z,27.20
2018-04-11T13:14:34.498Z,26.60
2018-04-11T13:17:02.920Z,27.10
2018-04-11T13:19:31.624Z,26.40
2018-04-11T13:22:00.819Z,26.90
2018-04-11T13:24:30.008Z,26.40
2018-04-11T13:26:58.719Z,26.40
2018-04-11T13:29:27.208Z,26.50
2018-04-11T13:31:55.643Z,26.80
2018-04-11T13:34:24.080Z,26.60
2018-04-11T13:36:52.284Z,26.70
2018-04-11T13:39:21.617Z,25.20
2018-04-11T13:41:50.233Z,25.10
2018-04-11T13:44:18.737Z,24.10
2018-04-11T13:46:47.128Z,24.60
2018-04-11T13:49:15.838Z,25.40
2018-04-11T13:51:45.145Z,25.90
2018-04-11T13:54:13.837Z,25.80
2018-04-11T13:56:42.293Z,26.00
2018-04-11T13:59:11.494Z,25.80
2018-04-11T14:01:40.461Z,24.80
2018-04-11T14:04:10.465Z,25.10
2018-04-11T14:06:38.670Z,25.10
2018-04-11T14:09:06.821Z,26.10
2018-04-11T14:11:34.591Z,26.70
2018-04-11T14:14:03.019Z,27.00
2018-04-11T14:16:31.341Z,26.50
2018-04-11T14:18:59.828Z,26.10
2018-04-11T14:21:28.438Z,25.30
2018-04-11T14:23:57.126Z,24.90
2018-04-11T14:26:25.833Z,24.70
2018-04-11T14:28:55.061Z,25.00
2018-04-11T14:31:23.492Z,25.00
2018-04-11T14:33:52.202Z,24.50
2018-04-11T14:36:20.400Z,23.90
2018-04-11T14:38:48.832Z,23.40
2018-04-11T14:41:17.288Z,24.00
2018-04-11T14:43:46.493Z,23.60
2018-04-11T14:46:15.365Z,23.30
2018-04-11T14:48:43.854Z,23.30
2018-04-11T14:51:13.067Z,23.00
2018-04-11T14:53:41.575Z,23.00
2018-04-11T14:56:10.015Z,22.30
2018-04-11T14:58:39.211Z,21.00
2018-04-11T15:01:07.909Z,20.90
2018-04-11T15:03:36.667Z,20.90
2018-04-11T15:06:05.393Z,20.80
2018-04-11T15:08:34.116Z,20.50
2018-04-11T15:11:02.880Z,20.60
2018-04-11T15:13:31.557Z,20.80
2018-04-11T15:15:59.988Z,20.40
2018-04-11T15:18:28.444Z,20.40
2018-04-11T15:20:57.164Z,20.50
2018-04-11T15:23:25.597Z,21.20
2018-04-11T15:25:55.069Z,22.30
2018-04-11T15:28:23.505Z,22.30
2018-04-11T15:30:52.205Z,22.20
2018-04-11T15:33:20.820Z,21.90
2018-04-11T15:35:49.317Z,21.40
2018-04-11T15:38:17.741Z,20.80
2018-04-11T15:40:46.189Z,20.00
2018-04-11T15:43:14.632Z,19.70
2018-04-11T15:45:43.196Z,19.80
2018-04-11T15:48:11.669Z,19.80
2018-04-11T15:50:40.409Z,19.90
2018-04-11T15:53:09.284Z,19.50
2018-04-11T15:55:37.992Z,19.20
2018-04-11T15:58:06.647Z,19.00
2018-04-11T16:00:34.876Z,18.80
2018-04-11T16:03:03.588Z,18.60
2018-04-11T16:05:32.157Z,18.60
2018-04-11T16:08:00.718Z,18.50
2018-04-11T16:10:29.266Z,18.60
2018-04-11T16:12:57.701Z,18.80
2018-04-11T16:15:26.126Z,18.90
2018-04-11T16:17:54.589Z,19.10
2018-04-11T16:20:23.285Z,19.00
2018-04-11T16:22:51.834Z,18.90
2018-04-11T16:25:20.361Z,18.90
2018-04-11T16:27:48.553Z,19.00
2018-04-11T16:30:17.265Z,18.70
2018-04-11T16:32:45.963Z,18.60
2018-04-11T16:35:14.956Z,18.80
2018-04-11T16:37:43.713Z,18.70
2018-04-11T16:40:12.449Z,18.70
2018-04-11T16:42:40.873Z,18.50
2018-04-11T16:45:09.600Z,18.60
2018-04-11T16:47:38.293Z,18.40
2018-04-11T16:50:06.836Z,18.20
2018-04-11T16:52:34.708Z,18.00
2018-04-11T16:55:03.142Z,18.00
2018-04-11T16:57:31.565Z,17.70
2018-04-11T17:00:00.365Z,17.70
2018-04-11T17:02:29.988Z,17.70
2018-04-11T17:04:58.644Z,17.60
2018-04-11T17:07:27.354Z,17.50
2018-04-11T17:09:56.316Z,17.40
2018-04-11T17:12:24.651Z,17.40
2018-04-11T17:14:53.783Z,17.20
2018-04-11T17:17:22.262Z,17.20
2018-04-11T17:19:50.476Z,17.10
2018-04-11T17:22:29.945Z,17.00
2018-04-11T17:25:10.289Z,17.00
2018-04-11T17:27:49.480Z,17.00
2018-04-11T17:30:29.780Z,16.90
2018-04-11T17:32:58.218Z,16.90
2018-04-11T17:35:26.652Z,16.90
2018-04-11T17:37:55.374Z,16.90
2018-04-11T17:40:24.080Z,16.70
2018-04-11T17:42:53.050Z,16.50
2018-04-11T17:45:21.173Z,16.40
2018-04-11T17:47:49.616Z,16.30
2018-04-11T17:50:17.994Z,16.30
2018-04-11T17:52:47.197Z,16.00
2018-04-11T17:55:16.566Z,16.00
2018-04-11T17:57:45.192Z,15.90
2018-04-11T18:00:14.585Z,16.00
2018-04-11T18:02:44.064Z,15.90
2018-04-11T18:05:13.674Z,15.80
2018-04-11T18:07:42.114Z,15.70
2018-04-11T18:10:10.558Z,15.60
2018-04-11T18:12:39.285Z,15.60
2018-04-11T18:15:07.722Z,15.60
2018-04-11T18:17:37.251Z,15.50
2018-04-11T18:20:05.733Z,15.50
2018-04-11T18:22:34.386Z,15.50
2018-04-11T18:25:03.098Z,15.50
2018-04-11T18:27:31.699Z,15.50
2018-04-11T18:30:00.334Z,15.50
2018-04-11T18:32:29.155Z,15.40
2018-04-11T18:34:58.664Z,15.30
2018-04-11T18:37:27.093Z,15.40
2018-04-11T18:39:55.789Z,15.40
2018-04-11T18:42:24.513Z,15.20
2018-04-11T18:44:55.421Z,15.10
2018-04-11T18:47:24.090Z,15.10
2018-04-11T18:49:53.414Z,15.00
2018-04-11T18:52:21.858Z,15.00
2018-04-11T18:54:50.346Z,14.90
2018-04-11T18:57:19.084Z,14.90
2018-04-11T18:59:48.466Z,14.80
2018-04-11T19:02:16.957Z,14.80
2018-04-11T19:04:45.401Z,14.70
2018-04-11T19:07:14.126Z,14.80
2018-04-11T19:09:42.573Z,14.90
2018-04-11T19:12:11.289Z,14.80
2018-04-11T19:14:39.734Z,14.80
2018-04-11T19:17:08.933Z,14.80
2018-04-11T19:19:37.689Z,14.80
2018-04-11T19:22:06.437Z,14.80
2018-04-11T19:24:35.909Z,14.80
2018-04-11T19:27:04.592Z,14.80
2018-04-11T19:29:33.257Z,14.90
2018-04-11T19:32:01.721Z,14.90
2018-04-11T19:34:30.381Z,15.00
2018-04-11T19:36:58.813Z,14.90
2018-04-11T19:39:27.265Z,15.00
2018-04-11T19:41:55.693Z,15.00
2018-04-11T19:44:23.911Z,14.90
2018-04-11T19:46:52.541Z,14.80
2018-04-11T19:49:20.760Z,14.80
2018-04-11T19:51:49.986Z,14.80
2018-04-11T19:54:18.809Z,14.80
2018-04-11T19:56:47.375Z,14.80
2018-04-11T19:59:15.763Z,14.70
2018-04-11T20:01:44.968Z,14.60
2018-04-11T20:04:14.284Z,14.60
2018-04-11T20:06:42.637Z,14.60
2018-04-11T20:09:11.354Z,14.60
2018-04-11T20:11:39.870Z,14.60
2018-04-11T20:14:08.392Z,14.60
2018-04-11T20:16:36.878Z,14.60
2018-04-11T20:19:06.034Z,14.40
2018-04-11T20:21:35.238Z,14.40
2018-04-11T20:24:03.761Z,14.40
2018-04-11T20:26:32.194Z,14.40
2018-04-11T20:29:00.389Z,14.30
2018-04-11T20:31:28.885Z,14.20
2018-04-11T20:33:57.115Z,14.30
2018-04-11T20:36:25.561Z,14.20
2018-04-11T20:38:54.001Z,14.20
2018-04-11T20:41:23.201Z,14.10
2018-04-11T20:43:52.180Z,14.10
2018-04-11T20:46:20.662Z,14.10
2018-04-11T20:48:49.853Z,14.00
2018-04-11T20:51:18.296Z,13.90
2018-04-11T20:53:46.740Z,14.00
2018-04-11T20:56:15.440Z,14.00
2018-04-11T20:58:44.930Z,14.00
2018-04-11T21:01:13.635Z,14.00
2018-04-11T21:03:42.670Z,14.10
2018-04-11T21:06:10.880Z,14.10
2018-04-11T21:08:39.890Z,14.10
2018-04-11T21:11:08.646Z,14.10
2018-04-11T21:13:38.342Z,13.90
2018-04-11T21:16:07.938Z,13.90
2018-04-11T21:18:37.145Z,13.90
2018-04-11T21:21:05.994Z,13.80
2018-04-11T21:23:34.990Z,13.80
2018-04-11T21:26:03.695Z,13.80
2018-04-11T21:28:32.694Z,13.70
2018-04-11T21:31:01.439Z,13.70
2018-04-11T21:33:30.731Z,13.80
2018-04-11T21:35:59.555Z,13.70
2018-04-11T21:38:28.088Z,13.70
2018-04-11T21:41:01.577Z,13.80
2018-04-11T21:43:30.331Z,13.80
2018-04-11T21:45:58.810Z,13.80
2018-04-11T21:48:27.560Z,13.70
2018-04-11T21:50:56.046Z,13.70
2018-04-11T21:53:24.677Z,13.70
2018-04-11T21:55:54.011Z,13.70
2018-04-11T21:58:22.769Z,13.70
2018-04-11T22:00:51.994Z,13.60
2018-04-11T22:03:21.518Z,13.60
2018-04-11T22:05:49.940Z,13.60
2018-04-11T22:08:18.686Z,13.60
2018-04-11T22:10:47.146Z,13.60
2018-04-11T22:13:15.369Z,13.60
2018-04-11T22:15:44.621Z,13.60
2018-04-11T22:18:13.081Z,13.60
2018-04-11T22:20:41.845Z,13.60
2018-04-11T22:23:10.558Z,13.60
2018-04-11T22:25:38.993Z,13.60
2018-04-11T22:28:07.452Z,13.70
2018-04-11T22:30:35.984Z,13.70
2018-04-11T22:33:05.172Z,13.60
2018-04-11T22:35:34.361Z,13.60
2018-04-11T22:38:03.088Z,13.60
2018-04-11T22:40:31.836Z,13.50
2018-04-11T22:43:00.544Z,13.60
2018-04-11T22:45:30.266Z,13.60
2018-04-11T22:47:58.656Z,13.60
2018-04-11T22:50:27.946Z,13.50
2018-04-11T22:52:57.301Z,13.40
2018-04-11T22:55:26.585Z,13.40
2018-04-11T22:57:55.127Z,13.40
2018-04-11T23:00:24.040Z,13.40
2018-04-11T23:02:52.744Z,13.40
2018-04-11T23:05:21.456Z,13.40
2018-04-11T23:07:49.984Z,13.40
2018-04-11T23:10:18.516Z,13.50
2018-04-11T23:12:46.928Z,13.50
2018-04-11T23:15:15.133Z,13.50
2018-04-11T23:17:43.338Z,13.50
2018-04-11T23:20:12.311Z,13.50
2018-04-11T23:22:41.118Z,13.50
2018-04-11T23:25:09.971Z,13.50
2018-04-11T23:27:39.018Z,13.40
2018-04-11T23:30:07.744Z,13.40
2018-04-11T23:32:36.509Z,13.40
2018-04-11T23:35:05.744Z,13.30
2018-04-11T23:37:34.478Z,13.30
2018-04-11T23:40:03.059Z,13.30
2018-04-11T23:42:31.697Z,13.20
2018-04-11T23:45:00.137Z,13.20
2018-04-11T23:47:28.861Z,13.20
2018-04-11T23:49:57.286Z,13.30
2018-04-11T23:52:25.721Z,13.20
2018-04-11T23:54:54.148Z,13.20
2018-04-11T23:57:23.632Z,13.20
2018-04-11T23:59:52.825Z,13.30
